.
WxDataArchive / Data Records for 2012-04-16
2012-04-15 April 2012 2012-04-17

Data Records for Monday, 16 April 2012

Time	Temp	Chill	HIndex	Humid	Dewpt	 Wind 	HiWind	WindDir	Rain 	Barom 
-----	----	-----	------	-----	-----	------	------	-------	-----	----- 
00:00	68.8	68.8	68.8	62	55.2	1	7	135	0.00	29.755 
00:05	68.6	68.6	68.6	62	55.0	1	4	292	0.00	29.755 
00:10	68.6	68.6	68.6	62	55.0	1	6	225	0.00	29.755 
00:15	68.6	68.6	68.6	62	55.0	1	6	225	0.00	29.749 
00:20	68.6	68.6	68.6	62	55.0	1	4	270	0.00	29.749 
00:25	68.6	68.6	68.6	62	55.0	2	7	248	0.00	29.749 
00:30	68.6	68.6	68.6	62	55.0	1	5	248	0.00	29.751 
00:35	68.6	68.6	68.6	62	55.0	1	5	225	0.00	29.751 
00:40	68.4	68.4	68.4	62	54.9	1	5	270	0.00	29.751 
00:45	68.4	68.4	68.4	62	54.9	1	5	248	0.00	29.747 
00:50	68.4	68.4	68.4	62	54.9	1	5	248	0.00	29.747 
00:55	68.4	68.4	68.4	62	54.9	1	5	248	0.00	29.747 
01:00	68.4	68.4	68.4	62	54.9	2	7	248	0.00	29.748 
01:05	68.6	68.6	68.6	62	55.0	2	5	248	0.00	29.748 
01:10	68.8	68.8	68.8	62	55.2	2	6	270	0.00	29.748 
01:15	68.8	68.8	68.8	62	55.2	2	7	248	0.00	29.739 
01:20	68.8	68.8	68.8	62	55.2	2	5	68	0.00	29.739 
01:25	68.8	68.8	68.8	62	55.2	1	5	248	0.00	29.739 
01:30	68.6	68.6	68.6	62	55.0	1	9	248	0.00	29.734 
01:35	68.6	68.6	68.6	62	55.0	2	5	112	0.00	29.734 
01:40	68.8	68.8	68.8	62	55.2	1	5	248	0.00	29.734 
01:45	68.8	68.8	68.8	62	55.2	3	11	248	0.00	29.727 
01:50	68.9	68.9	68.9	62	55.3	2	5	248	0.00	29.727 
01:55	68.9	68.9	68.9	62	55.3	1	4	248	0.00	29.727 
02:00	68.9	68.9	68.9	62	55.3	1	7	248	0.00	29.717 
02:05	68.9	68.9	68.9	62	55.3	2	8	248	0.00	29.717 
02:10	68.9	68.9	68.9	63	55.8	2	10	90	0.00	29.717 
02:15	68.9	68.9	68.9	63	55.8	2	7	225	0.00	29.703 
02:20	69.1	69.1	69.1	62	55.5	2	6	292	0.00	29.703 
02:25	69.1	69.1	69.1	63	56.0	2	5	68	0.00	29.703 
02:30	69.3	69.3	69.3	62	55.7	3	9	270	0.00	29.697 
02:35	69.4	69.4	69.4	62	55.8	1	6	248	0.00	29.697 
02:40	69.4	69.4	69.4	62	55.8	3	10	248	0.00	29.697 
02:45	69.4	69.4	69.4	62	55.8	2	7	270	0.00	29.690 
02:50	69.4	69.4	69.4	63	56.2	3	9	248	0.00	29.690 
02:55	69.3	69.3	69.3	63	56.2	2	9	248	0.00	29.690 
03:00	69.4	69.4	69.4	63	56.2	3	6	248	0.00	29.681 
03:05	69.6	69.6	69.6	63	56.4	2	6	270	0.00	29.681 
03:10	69.6	69.6	69.6	63	56.4	3	7	270	0.00	29.681 
03:15	69.8	69.8	69.8	63	56.6	2	9	248	0.00	29.681 
03:20	69.8	69.8	69.8	63	56.6	2	6	248	0.00	29.681 
03:25	69.8	69.8	69.8	63	56.6	2	7	248	0.00	29.681 
03:30	69.8	69.8	69.8	63	56.6	2	7	270	0.00	29.680 
03:35	69.8	69.8	69.8	63	56.6	2	10	270	0.00	29.680 
03:40	69.8	69.8	69.8	63	56.6	3	7	248	0.00	29.680 
03:45	69.8	69.8	69.8	63	56.6	3	9	248	0.00	29.666 
03:50	69.8	69.8	69.8	63	56.6	2	9	45	0.00	29.666 
03:55	69.8	69.8	69.8	64	57.1	2	10	248	0.00	29.666 
04:00	69.8	69.8	69.8	64	57.1	2	9	248	0.00	29.667 
04:05	69.9	69.9	69.9	64	57.2	3	11	248	0.00	29.667 
04:10	69.9	69.9	69.9	64	57.2	3	10	270	0.00	29.667 
04:15	70.1	70.1	70.1	64	57.3	3	13	270	0.00	29.672 
04:20	70.1	70.1	70.1	64	57.3	2	7	248	0.00	29.672 
04:25	70.1	70.1	70.1	64	57.3	4	14	270	0.00	29.672 
04:30	70.3	70.3	70.3	64	57.5	2	7	248	0.00	29.668 
04:35	70.3	70.3	70.3	64	57.5	3	9	248	0.00	29.668 
04:40	70.3	70.3	70.3	64	57.5	2	10	248	0.00	29.668 
04:45	70.3	70.3	70.3	64	57.5	3	10	248	0.00	29.683 
04:50	70.4	70.4	70.4	64	57.6	4	10	248	0.00	29.683 
04:55	70.6	70.6	70.6	64	57.8	3	10	248	0.00	29.683 
05:00	70.6	70.6	70.6	64	57.8	4	11	248	0.00	29.685 
05:05	70.4	70.4	70.4	64	57.6	3	11	248	0.00	29.685 
05:10	70.4	70.4	70.4	64	57.6	4	12	270	0.00	29.685 
05:15	70.4	70.4	70.4	64	57.6	3	11	248	0.00	29.696 
05:20	70.6	70.6	70.6	64	57.8	3	10	248	0.00	29.696 
05:25	70.6	70.6	70.6	64	57.8	3	11	248	0.00	29.696 
05:30	70.4	70.4	70.4	64	57.6	2	7	248	0.00	29.693 
05:35	70.3	70.3	70.3	64	57.5	3	7	248	0.00	29.693 
05:40	69.9	69.9	69.9	65	57.6	3	10	248	0.00	29.693 
05:45	69.6	69.6	69.6	66	57.7	3	7	248	0.00	29.699 
05:50	69.3	69.3	69.3	67	57.9	3	13	225	0.00	29.699 
05:55	69.1	69.1	69.1	69	58.5	4	10	248	0.00	29.699 
06:00	68.6	68.6	68.6	71	58.8	3	9	248	0.00	29.700 
06:05	67.9	67.9	67.9	73	58.9	4	15	270	0.00	29.700 
06:10	67.3	67.3	67.3	76	59.5	3	9	248	0.00	29.700 
06:15	66.6	66.6	66.6	79	59.9	3	9	270	0.01	29.691 
06:20	66.0	66.0	66.0	81	60.0	3	10	248	0.00	29.691 
06:25	65.6	65.6	65.6	81	59.6	3	7	225	0.00	29.691 
06:30	65.3	65.3	65.3	83	60.0	2	9	248	0.00	29.700 
06:35	64.8	64.8	64.8	84	59.8	2	5	292	0.01	29.700 
06:40	64.7	64.7	64.7	85	60.1	2	5	202	0.00	29.700 
06:45	64.3	64.3	64.3	86	60.0	3	10	248	0.00	29.705 
06:50	64.2	64.2	64.2	87	60.2	2	7	90	0.01	29.705 
06:55	64.0	64.0	64.0	88	60.4	1	5	112	0.00	29.705 
07:00	63.7	63.7	63.7	88	60.1	1	10	112	0.01	29.686 
07:05	63.7	63.7	63.7	89	60.4	2	6	90	0.00	29.686 
07:10	63.5	63.5	63.5	89	60.2	1	5	45	0.02	29.686 
07:15	63.4	63.4	63.4	90	60.4	1	4	90	0.00	29.688 
07:20	63.2	63.2	63.2	90	60.2	2	6	270	0.00	29.688 
07:25	63.1	63.1	63.1	91	60.4	2	7	90	0.02	29.688 
07:30	63.1	63.1	63.1	91	60.4	1	4	68	0.01	29.688 
07:35	62.9	62.9	62.9	91	60.2	2	6	112	0.00	29.688 
07:40	62.7	62.7	62.7	92	60.3	2	7	270	0.01	29.688 
07:45	62.6	62.6	62.6	92	60.2	2	7	270	0.00	29.676 
07:50	62.4	62.4	62.4	92	60.0	2	7	248	0.00	29.676 
07:55	62.4	62.4	62.4	92	60.0	2	6	248	0.00	29.676 
08:00	62.4	62.4	62.4	92	60.0	3	9	248	0.00	29.687 
08:05	62.4	62.4	62.4	92	60.0	1	4	225	0.00	29.687 
08:10	62.4	62.4	62.4	92	60.0	1	4	225	0.00	29.687 
08:15	62.4	62.4	62.4	92	60.0	1	6	248	0.00	29.689 
08:20	62.6	62.6	62.6	92	60.2	2	6	248	0.00	29.689 
08:25	62.6	62.6	62.6	92	60.2	2	7	248	0.00	29.689 
08:30	62.7	62.7	62.7	92	60.3	2	6	248	0.00	29.692 
08:35	62.9	62.9	62.9	92	60.5	2	4	248	0.00	29.692 
08:40	63.1	63.1	63.1	92	60.7	2	7	248	0.00	29.692 
08:45	63.2	63.2	63.2	92	60.8	2	7	270	0.00	29.694 
08:50	63.2	63.2	63.2	91	60.5	2	6	248	0.00	29.694 
08:55	62.9	62.9	62.9	89	59.6	5	12	248	0.00	29.694 
09:00	62.7	62.7	62.7	87	58.8	4	12	248	0.00	29.692 
09:05	62.6	62.6	62.6	84	57.7	4	12	248	0.00	29.692 
09:10	62.6	62.6	62.6	82	57.0	3	12	270	0.00	29.692 
09:15	62.7	62.7	62.7	80	56.4	4	12	248	0.00	29.697 
09:20	62.7	62.7	62.7	77	55.4	5	15	248	0.00	29.697 
09:25	62.9	62.9	62.9	77	55.6	3	7	248	0.00	29.697 
09:30	62.9	62.9	62.9	77	55.6	3	9	248	0.00	29.692 
09:35	62.9	62.9	62.9	75	54.8	3	12	248	0.00	29.692 
09:40	63.1	63.1	63.1	73	54.3	4	9	248	0.00	29.692 
09:45	63.4	63.4	63.4	72	54.2	3	9	225	0.00	29.701 
09:50	63.9	63.9	63.9	70	53.9	6	14	248	0.01	29.701 
09:55	64.0	64.0	64.0	68	53.2	5	12	248	0.00	29.701 
10:00	64.2	64.2	64.2	66	52.6	5	13	270	0.00	29.718 
10:05	64.0	64.0	64.0	66	52.4	6	18	248	0.00	29.718 
10:10	63.7	63.7	63.7	65	51.7	6	19	248	0.00	29.718 
10:15	63.4	63.4	63.4	64	51.0	6	15	248	0.00	29.729 
10:20	63.2	63.2	63.2	64	50.8	6	13	248	0.00	29.729 
10:25	63.2	63.2	63.2	65	51.2	5	12	248	0.00	29.729 
10:30	63.2	63.2	63.2	64	50.8	6	16	248	0.00	29.737 
10:35	63.7	63.7	63.7	64	51.3	4	13	248	0.00	29.737 
10:40	64.3	64.3	64.3	62	51.0	6	15	248	0.00	29.737 
10:45	64.5	64.5	64.5	62	51.2	4	12	248	0.00	29.739 
10:50	64.3	64.3	64.3	62	51.0	5	14	270	0.00	29.739 
10:55	64.0	64.0	64.0	59	49.4	7	13	248	0.00	29.739 
11:00	63.9	63.9	63.9	58	48.8	5	14	248	0.00	29.739 
11:05	63.7	63.7	63.7	59	49.1	8	21	248	0.00	29.739 
11:10	63.5	63.5	63.5	59	48.9	7	18	248	0.00	29.739 
11:15	63.7	63.7	63.7	59	49.1	6	14	248	0.00	29.758 
11:20	64.0	64.0	64.0	59	49.4	5	14	248	0.00	29.758 
11:25	64.7	64.7	64.7	59	50.0	4	11	248	0.00	29.758 
11:30	64.3	64.3	64.3	57	48.7	6	19	248	0.00	29.767 
11:35	64.3	64.3	64.3	56	48.3	5	10	248	0.00	29.767 
11:40	64.5	64.5	64.5	56	48.4	5	12	248	0.00	29.767 
11:45	65.3	65.3	65.3	54	48.2	5	11	248	0.00	29.774 
11:50	65.6	65.6	65.6	54	48.5	4	10	248	0.00	29.774 
11:55	65.6	65.6	65.6	54	48.5	4	11	248	0.00	29.774 
12:00	65.2	65.2	65.2	54	48.1	3	8	248	0.00	29.773 
12:05	64.7	64.7	64.7	57	49.1	2	6	248	0.00	29.773 
12:10	64.0	64.0	64.0	57	48.5	3	11	248	0.00	29.773 
12:15	63.4	63.4	63.4	58	48.4	5	12	248	0.00	29.785 
12:20	63.2	63.2	63.2	58	48.2	5	13	248	0.00	29.785 
12:25	63.1	63.1	63.1	58	48.1	6	15	248	0.00	29.785 
12:30	63.4	63.4	63.4	60	49.3	3	7	248	0.00	29.785 
12:35	64.3	64.3	64.3	58	49.2	4	10	248	0.00	29.785 
12:40	65.3	65.3	65.3	54	48.2	4	11	248	0.00	29.785 
12:45	65.0	65.0	65.0	51	46.4	4	12	270	0.00	29.785 
12:50	64.2	64.2	64.2	51	45.7	7	20	248	0.00	29.785 
12:55	63.5	63.5	63.5	52	45.6	7	17	248	0.00	29.785 
13:00	63.1	63.1	63.1	53	45.7	6	13	270	0.00	29.792 
13:05	63.5	63.5	63.5	55	47.0	4	10	248	0.00	29.792 
13:10	63.5	63.5	63.5	53	46.1	7	16	248	0.00	29.792 
13:15	63.4	63.4	63.4	55	46.9	6	14	248	0.00	29.806 
13:20	63.4	63.4	63.4	55	46.9	6	12	248	0.00	29.806 
13:25	63.7	63.7	63.7	53	46.2	6	19	248	0.00	29.806 
13:30	63.1	63.1	63.1	54	46.2	7	15	248	0.00	29.810 
13:35	62.4	62.4	62.4	56	46.5	5	15	248	0.00	29.810 
13:40	61.6	61.6	61.6	59	47.1	4	10	248	0.00	29.810 
13:45	61.0	61.0	61.0	61	47.5	5	10	248	0.00	29.824 
13:50	60.7	60.7	60.7	61	47.2	5	12	270	0.00	29.824 
13:55	60.5	60.5	60.5	59	46.1	5	13	248	0.00	29.824 
14:00	60.7	60.7	60.7	59	46.3	6	13	248	0.00	29.831 
14:05	60.7	60.7	60.7	59	46.3	5	11	248	0.00	29.831 
14:10	60.5	60.5	60.5	59	46.1	6	15	248	0.00	29.831 
14:15	60.4	60.4	60.4	58	45.6	6	13	248	0.00	29.840 
14:20	60.4	60.4	60.4	58	45.6	4	12	248	0.00	29.840 
14:25	60.5	60.5	60.5	57	45.2	5	16	248	0.00	29.840 
14:30	60.5	60.5	60.5	58	45.6	6	15	248	0.00	29.851 
14:35	60.5	60.5	60.5	56	44.7	6	15	248	0.00	29.851 
14:40	60.7	60.7	60.7	57	45.4	5	11	248	0.00	29.851 
14:45	60.7	60.7	60.7	57	45.4	6	13	248	0.00	29.856 
14:50	61.0	61.0	61.0	58	46.1	4	7	248	0.00	29.856 
14:55	61.6	61.6	61.6	57	46.2	3	9	248	0.00	29.856 
15:00	61.6	61.6	61.6	57	46.2	5	12	248	0.00	29.859 
15:05	60.9	60.9	60.9	58	46.0	5	13	248	0.00	29.859 
15:10	60.2	60.2	60.2	59	45.8	6	13	270	0.00	29.859 
15:15	60.1	60.1	60.1	57	44.8	6	14	248	0.00	29.869 
15:20	60.4	60.4	60.4	57	45.1	5	13	248	0.00	29.869 
15:25	61.0	61.0	61.0	56	45.2	6	11	248	0.00	29.869 
15:30	61.0	61.0	61.0	56	45.2	5	10	248	0.00	29.873 
15:35	60.9	60.9	60.9	55	44.6	5	12	248	0.00	29.873 
15:40	60.4	60.4	60.4	55	44.2	7	16	248	0.00	29.873 
15:45	60.2	60.2	60.2	57	44.9	6	19	248	0.00	29.887 
15:50	59.9	59.9	59.9	56	44.2	6	13	248	0.00	29.887 
15:55	59.6	59.6	59.6	57	44.3	5	11	248	0.00	29.887 
16:00	59.3	59.3	59.3	57	44.1	6	16	248	0.00	29.903 
16:05	58.9	58.9	58.9	58	44.1	4	7	270	0.00	29.903 
16:10	59.0	59.0	59.0	57	43.8	4	10	270	0.00	29.903 
16:15	59.3	59.3	59.3	56	43.6	5	13	248	0.00	29.914 
16:20	59.0	59.0	59.0	55	42.9	5	12	248	0.00	29.914 
16:25	58.6	58.6	58.6	55	42.5	7	18	248	0.00	29.914 
16:30	58.1	58.1	58.1	55	42.0	7	15	248	0.00	29.926 
16:35	57.5	57.5	57.5	57	42.4	8	18	270	0.00	29.926 
16:40	57.5	57.5	57.5	57	42.4	6	12	270	0.00	29.926 
16:45	57.5	57.5	57.5	56	41.9	4	14	248	0.00	29.934 
16:50	57.3	57.3	57.3	56	41.7	5	11	248	0.00	29.934 
16:55	56.9	56.9	56.9	57	41.8	5	11	248	0.00	29.934 
17:00	56.6	56.6	56.6	57	41.5	6	18	248	0.00	29.948 
17:05	56.6	56.6	56.6	57	41.5	6	12	270	0.00	29.948 
17:10	56.5	56.5	56.5	58	41.9	5	15	248	0.00	29.948 
17:15	56.5	56.5	56.5	57	41.5	5	10	270	0.00	29.958 
17:20	56.5	56.5	56.5	56	41.0	6	11	248	0.00	29.958 
17:25	56.6	56.6	56.6	56	41.1	5	12	248	0.00	29.958 
17:30	56.7	56.7	56.7	55	40.7	5	13	248	0.00	29.962 
17:35	56.9	56.9	56.9	54	40.4	6	12	248	0.00	29.962 
17:40	57.0	57.0	57.0	53	40.0	6	12	270	0.00	29.962 
17:45	57.2	57.2	57.2	53	40.2	8	14	270	0.00	29.968 
17:50	56.9	56.9	56.9	53	39.9	6	13	270	0.00	29.968 
17:55	56.7	56.7	56.7	54	40.2	5	14	248	0.00	29.968 
18:00	56.6	56.6	56.6	53	39.7	5	14	248	0.00	29.984 
18:05	56.6	56.6	56.6	54	40.1	4	9	270	0.00	29.984 
18:10	56.6	56.6	56.6	54	40.1	4	10	248	0.00	29.984 
18:15	56.5	56.5	56.5	53	39.6	5	12	270	0.00	30.002 
18:20	56.3	56.3	56.3	55	40.3	4	9	248	0.00	30.002 
18:25	56.2	56.2	56.2	54	39.8	5	10	270	0.00	30.002 
18:30	56.0	56.0	56.0	55	40.1	5	10	248	0.00	30.008 
18:35	55.9	55.9	55.9	54	39.5	6	12	270	0.00	30.008 
18:40	55.6	55.6	55.6	54	39.2	7	16	270	0.00	30.008 
18:45	55.3	55.3	55.3	55	39.4	5	11	270	0.00	30.026 
18:50	55.0	55.0	55.0	56	39.6	5	9	248	0.00	30.026 
18:55	54.8	54.8	54.8	56	39.4	5	10	248	0.00	30.026 
19:00	54.8	54.8	54.8	57	39.9	4	10	248	0.00	30.032 
19:05	54.8	54.8	54.8	57	39.9	5	10	248	0.00	30.032 
19:10	54.7	54.7	54.7	58	40.2	3	5	248	0.00	30.032 
19:15	54.7	54.7	54.7	58	40.2	3	5	270	0.00	30.046 
19:20	54.7	54.7	54.7	57	39.8	5	10	248	0.00	30.046 
19:25	54.8	54.8	54.8	56	39.4	5	12	248	0.00	30.046 
19:30	54.8	54.8	54.8	56	39.4	4	9	248	0.00	30.055 
19:35	54.8	54.8	54.8	56	39.4	4	12	270	0.00	30.055 
19:40	54.8	54.8	54.8	57	39.9	4	11	248	0.00	30.055 
19:45	54.7	54.7	54.7	57	39.8	4	9	248	0.00	30.058 
19:50	54.7	54.7	54.7	58	40.2	3	7	270	0.00	30.058 
19:55	54.7	54.7	54.7	58	40.2	3	6	248	0.00	30.058 
20:00	54.7	54.7	54.7	58	40.2	3	6	270	0.00	30.067 
20:05	54.8	54.8	54.8	57	39.9	4	8	270	0.00	30.067 
20:10	54.8	54.8	54.8	56	39.4	4	8	248	0.00	30.067 
20:15	54.7	54.7	54.7	54	38.4	4	10	248	0.00	30.075 
20:20	54.5	54.5	54.5	54	38.2	4	7	270	0.00	30.075 
20:25	54.5	54.5	54.5	53	37.7	3	6	270	0.00	30.075 
20:30	54.2	54.2	54.2	54	37.9	3	5	248	0.00	30.089 
20:35	54.1	54.1	54.1	55	38.3	3	7	270	0.00	30.089 
20:40	53.9	53.9	53.9	55	38.1	2	5	248	0.00	30.089 
20:45	53.8	53.8	53.8	56	38.5	2	4	248	0.00	30.104 
20:50	53.6	53.6	53.6	57	38.7	2	4	248	0.00	30.104 
20:55	53.5	53.5	53.5	57	38.6	1	4	248	0.00	30.104 
21:00	53.3	53.3	53.3	58	38.9	1	4	248	0.00	30.113 
21:05	53.2	53.2	53.2	58	38.8	1	2	248	0.00	30.113 
21:10	53.1	53.1	53.1	60	39.6	1	3	248	0.00	30.113 
21:15	52.9	52.9	52.9	60	39.4	1	3	248	0.00	30.117 
21:20	52.6	52.6	52.6	61	39.5	0	2	248	0.00	30.117 
21:25	52.5	52.5	52.5	61	39.4	0	3	248	0.00	30.117 
21:30	52.5	52.5	52.5	61	39.4	0	2	248	0.00	30.122 
21:35	52.3	52.3	52.3	62	39.7	0	2	248	0.00	30.122 
21:40	52.2	52.2	52.2	62	39.6	0	2	248	0.00	30.122 
21:45	52.0	52.0	52.0	62	39.4	1	3	248	0.00	30.132 
21:50	52.0	52.0	52.0	62	39.4	1	3	248	0.00	30.132 
21:55	51.9	51.9	51.9	62	39.3	1	2	248	0.00	30.132 
22:00	51.9	51.9	51.9	62	39.3	1	3	248	0.00	30.138 
22:05	51.7	51.7	51.7	63	39.5	0	2	248	0.00	30.138 
22:10	51.6	51.6	51.6	63	39.4	1	3	248	0.00	30.138 
22:15	51.4	51.4	51.4	63	39.2	1	3	248	0.00	30.146 
22:20	51.4	51.4	51.4	63	39.2	1	3	248	0.00	30.146 
22:25	51.3	51.3	51.3	62	38.7	1	4	248	0.00	30.146 
22:30	51.3	51.3	51.3	62	38.7	1	5	248	0.00	30.150 
22:35	51.4	51.4	51.4	62	38.8	2	5	292	0.00	30.150 
22:40	51.3	51.3	51.3	61	38.3	2	5	292	0.00	30.150 
22:45	51.3	51.3	51.3	61	38.3	2	3	292	0.00	30.153 
22:50	51.3	51.3	51.3	61	38.3	2	4	292	0.00	30.153 
22:55	51.1	51.1	51.1	61	38.1	1	4	270	0.00	30.153 
23:00	51.1	51.1	51.1	62	38.5	1	2	270	0.00	30.165 
23:05	51.0	51.0	51.0	62	38.4	1	3	270	0.00	30.165 
23:10	50.8	50.8	50.8	62	38.3	1	4	270	0.00	30.165 
23:15	50.7	50.7	50.7	62	38.2	1	3	270	0.00	30.166 
23:20	50.5	50.5	50.5	63	38.4	0	2	270	0.00	30.166 
23:25	50.4	50.4	50.4	63	38.3	0	1	270	0.00	30.166 
23:30	50.1	50.1	50.1	64	38.4	0	1	270	0.00	30.174 
23:35	49.9	49.9	49.9	64	38.2	0	1	270	0.00	30.174 
23:40	49.8	49.8	49.8	65	38.5	0	1	270	0.00	30.174 
23:45	49.5	49.5	49.5	65	38.2	0	1	270	0.00	30.179 
23:50	49.4	49.4	49.4	65	38.1	0	1	270	0.00	30.179 
23:55	49.1	49.1	49.1	66	38.2	0	1	270	0.00	30.179 

CoCoRaHS
IN-AL-39
A2 Web Hosting
Creative Commons License
GoDaddy
search engine by freefind advanced

loaded 2018-11-17 14:06:13 • last modified 2010-11-18 10:43:29
Privacy PolicyDisclaimer
• wx.awcolley.com is powered by PmWiki v.2002016 •
• all content (unless otherwise noted) © 2018 A W Colley